createdAt,value
2022-12-15T00:00:02.442Z,100083.34
2022-12-15T00:02:48.533Z,100081.47
2022-12-15T00:05:34.313Z,100088.78
2022-12-15T00:08:25.384Z,100096.09
2022-12-15T00:11:10.639Z,100103.41
2022-12-15T00:13:55.984Z,100099.06
2022-12-15T00:16:43.197Z,100100.69
2022-12-15T00:19:28.625Z,100097.19
2022-12-15T00:22:13.965Z,100102.34
2022-12-15T00:24:59.238Z,100115.38
2022-12-15T00:27:44.973Z,100125.97
2022-12-15T00:30:30.903Z,100126.22
2022-12-15T00:33:17.781Z,100112.66
2022-12-15T00:36:03.226Z,100112.66
2022-12-15T00:38:46.058Z,100117.25
2022-12-15T00:41:14.495Z,100126.22
2022-12-15T00:43:42.350Z,100131.66
2022-12-15T00:46:28.050Z,100132.50
2022-12-15T00:48:57.391Z,100136.25
2022-12-15T00:51:42.934Z,100138.97
2022-12-15T00:54:28.068Z,100137.94
2022-12-15T00:57:13.722Z,100141.69
2022-12-15T00:59:58.937Z,100149.84
2022-12-15T01:02:44.366Z,100148.78
2022-12-15T01:05:31.478Z,100151.72
2022-12-15T01:08:18.672Z,100144.63
2022-12-15T01:11:04.022Z,100145.25
2022-12-15T01:13:49.735Z,100144.41
2022-12-15T01:16:35.992Z,100144.63
2022-12-15T01:19:21.553Z,100155.50
2022-12-15T01:21:50.959Z,100159.88
2022-12-15T01:24:18.810Z,100154.44
2022-12-15T01:26:46.706Z,100158.81
2022-12-15T01:29:14.860Z,100158.22
2022-12-15T01:31:44.050Z,100163.44
2022-12-15T01:34:12.089Z,100163.44
2022-12-15T01:36:39.961Z,100166.97
2022-12-15T01:39:09.513Z,100179.72
2022-12-15T01:41:36.397Z,100182.44
2022-12-15T01:44:20.173Z,100190.59
2022-12-15T01:46:48.493Z,100185.38
2022-12-15T01:49:17.420Z,100191.63
2022-12-15T01:51:47.140Z,100195.19
2022-12-15T01:54:17.526Z,100198.72
2022-12-15T01:56:46.089Z,100200.63
2022-12-15T01:59:19.900Z,100205.00
2022-12-15T02:01:49.769Z,100204.16
2022-12-15T02:04:18.603Z,100202.28
2022-12-15T02:06:46.517Z,100205.00
2022-12-15T02:09:16.007Z,100205.81
2022-12-15T02:11:58.296Z,100212.06
2022-12-15T02:14:32.089Z,100207.72
2022-12-15T02:17:08.107Z,100173.06
2022-12-15T02:20:04.490Z,100190.59
2022-12-15T02:22:37.940Z,100194.97
2022-12-15T02:27:50.617Z,100197.28
2022-12-15T02:30:22.687Z,100203.34
2022-12-15T02:33:02.954Z,100203.91
2022-12-15T02:35:33.951Z,100203.91
2022-12-15T02:38:01.784Z,100205.81
2022-12-15T02:40:29.701Z,100200.41
2022-12-15T02:42:58.033Z,100199.31
2022-12-15T02:45:32.792Z,100209.34
2022-12-15T02:48:06.575Z,100212.06
2022-12-15T02:50:45.360Z,100219.41
2022-12-15T02:53:20.891Z,100222.94
2022-12-15T02:55:51.877Z,100224.84
2022-12-15T02:58:22.214Z,100233.00
2022-12-15T03:00:54.120Z,100235.72
2022-12-15T03:03:22.502Z,100231.06
2022-12-15T03:05:55.136Z,100205.03
2022-12-15T03:08:23.087Z,100239.22
2022-12-15T03:10:51.206Z,100229.53
2022-12-15T03:13:20.343Z,100241.94
2022-12-15T03:15:48.168Z,100245.75
2022-12-15T03:18:18.225Z,100257.44
2022-12-15T03:20:46.153Z,100260.38
2022-12-15T03:23:14.287Z,100260.94
2022-12-15T03:25:42.151Z,100258.22
2022-12-15T03:28:10.006Z,100250.91
2022-12-15T03:30:37.905Z,100251.16
2022-12-15T03:33:06.079Z,100261.19
2022-12-15T03:35:35.401Z,100259.31
2022-12-15T03:38:03.254Z,100263.66
2022-12-15T03:40:31.112Z,100260.16
2022-12-15T03:42:59.340Z,100260.16
2022-12-15T03:45:28.101Z,100259.31
2022-12-15T03:47:58.550Z,100260.94
2022-12-15T03:50:27.680Z,100255.53
2022-12-15T03:52:59.194Z,100259.53
2022-12-15T03:55:28.780Z,100265.59
2022-12-15T03:57:56.773Z,100266.03
2022-12-15T04:00:25.532Z,100274.53
2022-12-15T04:02:53.815Z,100277.25
2022-12-15T04:05:22.795Z,100271.25
2022-12-15T04:07:50.653Z,100279.16
2022-12-15T04:10:20.000Z,100279.16
2022-12-15T04:12:48.138Z,100281.06
2022-12-15T04:17:58.332Z,100286.47
2022-12-15T04:20:25.246Z,100287.53
2022-12-15T04:22:53.310Z,100282.94
2022-12-15T04:25:40.926Z,100282.94
2022-12-15T04:28:26.174Z,100267.75
2022-12-15T04:31:12.634Z,100239.13
2022-12-15T04:33:59.440Z,100256.75
2022-12-15T04:36:44.582Z,100284.22
2022-12-15T04:39:30.037Z,100268.97
2022-12-15T04:42:17.872Z,100287.13
2022-12-15T04:45:03.151Z,100284.44
2022-12-15T04:47:48.353Z,100284.44
2022-12-15T04:50:33.834Z,100280.06
2022-12-15T04:53:26.520Z,100283.84
2022-12-15T04:56:18.008Z,100276.38
2022-12-15T04:59:05.212Z,100280.06
2022-12-15T05:01:50.647Z,100281.97
2022-12-15T05:04:36.272Z,100263.94
2022-12-15T05:07:21.923Z,100277.34
2022-12-15T05:10:12.750Z,100278.41
2022-12-15T05:13:00.334Z,100292.00
2022-12-15T05:15:48.045Z,100302.03
2022-12-15T05:18:33.085Z,100300.13
2022-12-15T05:21:18.388Z,100304.53
2022-12-15T05:24:05.210Z,100302.03
2022-12-15T05:26:52.888Z,100302.84
2022-12-15T05:29:38.479Z,100308.28
2022-12-15T05:32:08.055Z,100310.16
2022-12-15T05:34:36.694Z,100306.41
2022-12-15T05:37:04.963Z,100314.31
2022-12-15T05:39:33.408Z,100308.88
2022-12-15T05:42:01.269Z,100319.72
2022-12-15T05:44:29.283Z,100320.56
2022-12-15T05:46:57.372Z,100325.16
2022-12-15T05:49:27.125Z,100257.38
2022-12-15T05:51:55.017Z,100328.50
2022-12-15T05:54:23.534Z,100336.66
2022-12-15T05:56:51.465Z,100335.59
2022-12-15T05:59:20.072Z,100333.72
2022-12-15T06:01:48.205Z,100340.81
2022-12-15T06:04:16.511Z,100327.28
2022-12-15T06:06:45.814Z,100339.97
2022-12-15T06:09:13.904Z,100334.41
2022-12-15T06:11:41.789Z,100348.13
2022-12-15T06:14:09.950Z,100338.31
2022-12-15T06:16:49.848Z,100331.06
2022-12-15T06:19:19.138Z,100337.25
2022-12-15T06:21:48.740Z,100346.25
2022-12-15T06:24:16.601Z,100343.53
2022-12-15T06:26:44.866Z,100353.56
2022-12-15T06:29:13.426Z,100351.88
2022-12-15T06:31:41.581Z,100352.72
2022-12-15T06:34:10.381Z,100350.84
2022-12-15T06:36:39.240Z,100353.56
2022-12-15T06:39:09.500Z,100339.22
2022-12-15T06:41:37.394Z,100342.69
2022-12-15T06:44:05.626Z,100337.25
2022-12-15T06:46:35.020Z,100352.50
2022-12-15T06:49:03.284Z,100347.28
2022-12-15T06:51:31.263Z,100355.44
2022-12-15T06:53:59.131Z,100348.34
2022-12-15T06:56:33.634Z,100346.69
2022-12-15T06:59:03.357Z,100358.16
2022-12-15T07:01:31.539Z,100357.09
2022-12-15T07:04:01.590Z,100360.88
2022-12-15T07:06:31.763Z,100346.53
2022-12-15T07:08:59.599Z,100367.13
2022-12-15T07:11:28.840Z,100369.84
2022-12-15T07:13:56.716Z,100365.69
2022-12-15T07:16:25.271Z,100372.56
2022-12-15T07:18:53.313Z,100365.91
2022-12-15T07:21:22.413Z,100368.63
2022-12-15T07:23:55.977Z,100386.16
2022-12-15T07:26:24.617Z,100388.03
2022-12-15T07:28:54.460Z,100386.16
2022-12-15T07:31:22.725Z,100383.66
2022-12-15T07:33:52.238Z,100372.84
2022-12-15T07:36:20.895Z,100383.44
2022-12-15T07:38:50.902Z,100379.06
2022-12-15T07:41:19.796Z,100373.63
2022-12-15T07:43:48.052Z,100380.94
2022-12-15T07:46:17.893Z,100391.81
2022-12-15T07:48:50.296Z,100332.81
2022-12-15T07:51:20.261Z,100356.78
2022-12-15T07:53:49.624Z,100393.69
2022-12-15T07:56:17.986Z,100370.06
2022-12-15T07:58:45.850Z,100390.13
2022-12-15T08:01:14.356Z,100390.13
2022-12-15T08:03:43.874Z,100391.44
2022-12-15T08:06:13.122Z,100396.41
2022-12-15T08:08:41.107Z,100392.03
2022-12-15T08:11:09.219Z,100395.56
2022-12-15T08:14:02.185Z,100388.25
2022-12-15T08:16:25.648Z,100390.34
2022-12-15T08:18:57.061Z,100394.72
2022-12-15T08:21:25.538Z,100410.19
2022-12-15T08:23:53.565Z,100410.19
2022-12-15T08:26:26.830Z,100415.63
2022-12-15T08:29:11.733Z,100425.66
2022-12-15T08:31:45.707Z,100422.94
2022-12-15T08:34:15.158Z,100432.19
2022-12-15T08:36:43.509Z,100426.50
2022-12-15T08:39:11.438Z,100432.19
2022-12-15T08:41:41.157Z,100438.44
2022-12-15T08:44:09.016Z,100436.53
2022-12-15T08:46:37.204Z,100433.81
2022-12-15T08:49:05.106Z,100430.28
2022-12-15T08:51:34.519Z,100441.16
2022-12-15T08:54:02.493Z,100447.38
2022-12-15T08:56:31.770Z,100452.81
2022-12-15T08:59:00.195Z,100442.22
2022-12-15T09:01:29.152Z,100452.03
2022-12-15T09:03:57.272Z,100452.81
2022-12-15T09:06:26.449Z,100444.91
2022-12-15T09:08:57.575Z,100449.53
2022-12-15T09:11:25.514Z,100460.16
2022-12-15T09:13:53.449Z,100460.16
2022-12-15T09:16:21.726Z,100458.50
2022-12-15T09:18:52.688Z,100461.44
2022-12-15T09:21:22.358Z,100469.38
2022-12-15T09:23:51.602Z,100468.31
2022-12-15T09:26:22.717Z,100471.25
2022-12-15T09:28:51.105Z,100470.19
2022-12-15T09:31:22.190Z,100467.47
2022-12-15T09:33:50.471Z,100476.47
2022-12-15T09:36:18.656Z,100488.13
2022-12-15T09:38:46.590Z,100487.53
2022-12-15T09:41:24.526Z,100492.75
2022-12-15T09:43:55.617Z,100496.28
2022-12-15T09:46:28.157Z,100354.69
2022-12-15T09:48:56.636Z,100503.84
2022-12-15T09:51:28.027Z,100501.13
2022-12-15T09:53:56.725Z,100495.69
2022-12-15T09:56:28.801Z,100494.84
2022-12-15T09:58:59.143Z,100492.97
2022-12-15T10:01:30.803Z,100491.31
2022-12-15T10:04:01.790Z,100482.16
2022-12-15T10:06:33.571Z,100496.53
2022-12-15T10:09:02.905Z,100502.78
2022-12-15T10:11:43.659Z,100509.28
2022-12-15T10:14:17.594Z,100520.13
2022-12-15T10:16:54.837Z,100515.53
2022-12-15T10:19:25.418Z,100460.44
2022-12-15T10:21:53.361Z,100501.13
2022-12-15T10:24:51.800Z,100471.16
2022-12-15T10:27:22.004Z,100491.94
2022-12-15T10:29:52.798Z,100478.88
2022-12-15T10:32:21.821Z,100501.13
2022-12-15T10:34:50.089Z,100500.28
2022-12-15T10:37:19.349Z,100511.16
2022-12-15T10:39:50.270Z,100505.72
2022-12-15T10:42:21.850Z,100514.91
2022-12-15T10:44:50.930Z,100513.88
2022-12-15T10:47:21.037Z,100514.72
2022-12-15T10:49:48.992Z,100503.84
2022-12-15T10:52:21.975Z,100505.72
2022-12-15T10:54:51.250Z,100497.56
2022-12-15T10:57:21.953Z,100497.78
2022-12-15T10:59:50.535Z,100494.84
2022-12-15T11:02:32.693Z,100496.75
2022-12-15T11:05:02.433Z,100480.50
2022-12-15T11:07:37.642Z,100486.72
2022-12-15T11:10:20.576Z,100486.72
2022-12-15T11:12:59.706Z,100475.84
2022-12-15T11:15:45.383Z,100476.69
2022-12-15T11:18:30.419Z,100484.84
2022-12-15T11:21:02.217Z,100484.00
2022-12-15T11:23:38.164Z,100483.16
2022-12-15T11:26:08.056Z,100483.16
2022-12-15T11:28:44.120Z,100448.28
2022-12-15T11:31:17.952Z,100476.69
2022-12-15T11:33:45.855Z,100482.13
2022-12-15T11:36:20.700Z,100473.66
2022-12-15T11:38:51.407Z,100484.00
2022-12-15T11:41:31.253Z,100484.00
2022-12-15T11:44:09.944Z,100396.06
2022-12-15T11:46:40.352Z,100475.63
2022-12-15T11:49:31.145Z,100467.69
2022-12-15T11:52:00.819Z,100379.03
2022-12-15T11:54:29.773Z,100465.81
2022-12-15T11:56:59.799Z,100478.56
2022-12-15T11:59:42.491Z,100482.94
2022-12-15T12:02:20.088Z,100469.78
2022-12-15T12:04:53.548Z,100475.84
2022-12-15T12:07:24.775Z,100480.44
2022-12-15T12:10:00.075Z,100437.25
2022-12-15T12:12:31.094Z,100448.00
2022-12-15T12:15:10.205Z,100470.19
2022-12-15T12:17:41.455Z,100434.03
2022-12-15T12:20:15.108Z,100429.72
2022-12-15T12:22:44.063Z,100429.03
2022-12-15T12:25:14.537Z,100460.16
2022-12-15T12:27:48.802Z,100432.75
2022-12-15T12:30:21.046Z,100454.75
2022-12-15T12:32:52.483Z,100403.63
2022-12-15T12:35:31.825Z,100386.78
2022-12-15T12:40:58.739Z,100385.25
2022-12-15T12:46:23.467Z,100425.06
2022-12-15T12:48:54.039Z,100410.72
2022-12-15T12:51:26.569Z,100414.06
2022-12-15T12:53:54.638Z,100418.34
2022-12-15T12:56:50.563Z,100425.66
2022-12-15T12:59:40.066Z,100402.56
2022-12-15T13:02:48.432Z,100410.66
2022-12-15T13:05:32.200Z,100407.34
2022-12-15T13:08:19.522Z,100401.31
2022-12-15T13:10:48.300Z,100392.84
2022-12-15T13:13:38.810Z,100404.03
2022-12-15T13:16:09.278Z,100393.16
2022-12-15T13:19:02.046Z,100375.81
2022-12-15T13:21:52.980Z,100371.81
2022-12-15T13:24:35.621Z,100236.50
2022-12-15T13:27:16.055Z,100360.72
2022-12-15T13:30:00.604Z,100343.88
2022-12-15T13:32:35.250Z,100352.56
2022-12-15T13:35:17.821Z,100336.81
2022-12-15T13:37:48.872Z,100342.53
2022-12-15T13:40:34.865Z,100344.19
2022-12-15T13:43:14.540Z,100338.75
2022-12-15T13:45:50.244Z,100323.00
2022-12-15T13:48:23.602Z,100295.41
2022-12-15T13:50:57.658Z,100334.16
2022-12-15T13:53:27.110Z,100312.59
2022-12-15T13:56:02.035Z,100275.00
2022-12-15T13:58:30.231Z,100326.63
2022-12-15T14:00:59.303Z,100317.63
2022-12-15T14:03:27.221Z,100320.34
2022-12-15T14:05:58.623Z,100320.34
2022-12-15T14:08:27.915Z,100323.91
2022-12-15T14:10:56.402Z,100316.81
2022-12-15T14:13:25.335Z,100315.75
2022-12-15T14:15:54.896Z,100307.66
2022-12-15T14:18:27.775Z,100318.47
2022-12-15T14:20:57.820Z,100304.28
2022-12-15T14:23:28.787Z,100294.34
2022-12-15T14:25:58.519Z,100301.34
2022-12-15T14:28:29.911Z,100279.38
2022-12-15T14:30:59.749Z,100265.06
2022-12-15T14:33:29.730Z,100267.91
2022-12-15T14:35:59.746Z,100262.34
2022-12-15T14:38:29.110Z,100265.81
2022-12-15T14:40:58.194Z,100269.56
2022-12-15T14:43:28.679Z,100266.50
2022-12-15T14:45:57.735Z,100273.13
2022-12-15T14:48:44.822Z,100268.75
2022-12-15T14:51:14.307Z,100266.03
2022-12-15T14:53:42.785Z,100260.59
2022-12-15T14:59:19.185Z,100229.78
2022-12-15T15:01:58.263Z,100245.25
2022-12-15T15:03:05.024Z,100446.59
2022-12-15T15:03:07.203Z,100430.50
2022-12-15T15:04:29.207Z,100275.22
2022-12-15T15:06:59.286Z,100275.84
2022-12-15T15:09:27.890Z,100243.88
2022-12-15T15:11:56.250Z,100282.31
2022-12-15T15:14:26.626Z,100289.63
2022-12-15T15:17:04.752Z,100231.38
2022-12-15T15:19:37.674Z,100290.69
2022-12-15T15:22:27.240Z,100303.44
2022-12-15T15:24:55.134Z,100304.06
2022-12-15T15:27:27.359Z,100298.84
2022-12-15T15:30:09.834Z,100305.94
2022-12-15T15:32:52.171Z,100308.66
2022-12-15T15:35:20.307Z,100187.97
2022-12-15T15:37:49.577Z,100314.91
2022-12-15T15:40:17.754Z,100316.22
2022-12-15T15:42:46.339Z,100325.78
2022-12-15T15:45:14.853Z,100337.69
2022-12-15T15:47:42.930Z,100332.25
2022-12-15T15:50:14.023Z,100335.81
2022-12-15T15:52:43.194Z,100321.25
2022-12-15T15:55:16.892Z,100320.28
2022-12-15T15:57:44.786Z,100305.56
2022-12-15T16:00:18.111Z,100345.00
2022-12-15T16:02:46.507Z,100334.84
2022-12-15T16:05:14.859Z,100340.66
2022-12-15T16:07:43.150Z,100320.13
2022-12-15T16:10:15.158Z,100343.13
2022-12-15T16:12:44.301Z,100306.88
2022-12-15T16:15:20.231Z,100346.75
2022-12-15T16:17:48.332Z,100363.59
2022-12-15T16:20:17.044Z,100361.91
2022-12-15T16:22:46.532Z,100313.56
2022-12-15T16:25:17.577Z,100325.66
2022-12-15T16:27:45.475Z,100359.44
2022-12-15T16:30:17.216Z,100353.78
2022-12-15T16:32:45.115Z,100356.50
2022-12-15T16:35:13.543Z,100323.16
2022-12-15T16:37:46.451Z,100337.72
2022-12-15T16:40:20.743Z,100374.66
2022-12-15T16:42:55.233Z,100379.28
2022-12-15T16:45:24.470Z,100374.88
2022-12-15T16:47:52.500Z,100367.41
2022-12-15T16:50:22.797Z,100377.38
2022-12-15T16:52:51.241Z,100377.38
2022-12-15T16:55:25.531Z,100385.53
2022-12-15T16:57:54.155Z,100383.03
2022-12-15T17:00:23.310Z,100360.31
2022-12-15T17:02:51.456Z,100364.56
2022-12-15T17:05:19.843Z,100385.53
2022-12-15T17:07:50.882Z,100396.41
2022-12-15T17:10:21.590Z,100400.16
2022-12-15T17:12:49.534Z,100405.38
2022-12-15T17:15:19.432Z,100409.16
2022-12-15T17:17:47.314Z,100411.88
2022-12-15T17:20:29.004Z,100409.38
2022-12-15T17:22:58.900Z,100406.06
2022-12-15T17:26:00.756Z,100416.72
2022-12-15T17:28:21.084Z,100422.13
2022-12-15T17:30:49.048Z,100428.38
2022-12-15T17:33:20.204Z,100427.31
2022-12-15T17:35:48.789Z,100393.91
2022-12-15T17:38:18.008Z,100421.91
2022-12-15T17:40:47.399Z,100422.78
2022-12-15T17:43:17.426Z,100440.91
2022-12-15T17:45:45.404Z,100445.28
2022-12-15T17:48:13.341Z,100445.28
2022-12-15T17:50:41.275Z,100442.56
2022-12-15T17:53:11.424Z,100340.81
2022-12-15T17:55:40.138Z,100433.59
2022-12-15T17:58:16.856Z,100425.66
2022-12-15T18:00:49.180Z,100422.94
2022-12-15T18:03:17.500Z,100377.69
2022-12-15T18:05:45.886Z,100403.78
2022-12-15T18:08:15.479Z,100404.75
2022-12-15T18:10:43.544Z,100409.16
2022-12-15T18:13:18.162Z,100390.03
2022-12-15T18:15:46.687Z,100412.06
2022-12-15T18:18:14.724Z,100411.50
2022-12-15T18:20:42.592Z,100417.50
2022-12-15T18:23:14.510Z,100422.13
2022-12-15T18:25:43.211Z,100290.19
2022-12-15T18:28:25.323Z,100412.31
2022-12-15T18:30:55.369Z,100426.75
2022-12-15T18:33:24.176Z,100421.31
2022-12-15T18:35:52.937Z,100416.09
2022-12-15T18:38:21.726Z,100426.75
2022-12-15T18:40:51.518Z,100403.88
2022-12-15T18:43:20.234Z,100422.34
2022-12-15T18:45:50.058Z,100425.91
2022-12-15T18:48:19.745Z,100407.94
2022-12-15T18:50:47.866Z,100396.78
2022-12-15T18:53:17.616Z,100397.31
2022-12-15T18:55:45.820Z,100410.88
2022-12-15T18:58:21.209Z,100416.31
2022-12-15T19:00:50.678Z,100407.13
2022-12-15T19:03:18.689Z,100395.41
2022-12-15T19:05:47.460Z,100397.91
2022-12-15T19:08:18.343Z,100394.16
2022-12-15T19:10:54.188Z,100408.56
2022-12-15T19:13:23.050Z,100402.31
2022-12-15T19:15:52.938Z,100408.31
2022-12-15T19:18:39.590Z,100406.66
2022-12-15T19:21:44.517Z,100403.13
2022-12-15T19:24:13.662Z,100410.19
2022-12-15T19:26:41.598Z,100409.38
2022-12-15T19:29:16.727Z,100412.06
2022-12-15T19:31:46.453Z,100413.38
2022-12-15T19:34:14.559Z,100386.13
2022-12-15T19:36:42.921Z,100407.72
2022-12-15T19:39:12.012Z,100358.72
2022-12-15T19:41:39.896Z,100383.56
2022-12-15T19:44:11.240Z,100382.97
2022-12-15T19:46:39.414Z,100394.97
2022-12-15T19:49:08.749Z,100396.88
2022-12-15T19:51:37.124Z,100382.16
2022-12-15T19:54:06.137Z,100407.72
2022-12-15T19:56:34.041Z,100411.50
2022-12-15T19:59:02.038Z,100416.72
2022-12-15T20:01:29.960Z,100394.69
2022-12-15T20:03:58.209Z,100406.91
2022-12-15T20:06:27.930Z,100403.56
2022-12-15T20:08:56.915Z,100363.13
2022-12-15T20:11:26.764Z,100387.34
2022-12-15T20:13:54.642Z,100401.53
2022-12-15T20:16:23.079Z,100412.31
2022-12-15T20:18:52.113Z,100401.47
2022-12-15T20:21:22.486Z,100382.50
2022-12-15T20:23:53.807Z,100394.38
2022-12-15T20:26:22.304Z,100397.91
2022-12-15T20:28:50.179Z,100393.53
2022-12-15T20:31:19.166Z,100395.41
2022-12-15T20:33:47.224Z,100373.84
2022-12-15T20:36:16.268Z,100399.81
2022-12-15T20:38:44.268Z,100405.22
2022-12-15T20:41:17.346Z,100392.75
2022-12-15T20:43:45.328Z,100398.97
2022-12-15T20:46:15.729Z,100338.28
2022-12-15T20:48:43.694Z,100388.94
2022-12-15T20:51:15.308Z,100388.09
2022-12-15T20:53:43.816Z,100390.81
2022-12-15T20:56:11.923Z,100388.09
2022-12-15T20:58:41.191Z,100378.81
2022-12-15T21:01:19.594Z,100389.97
2022-12-15T21:03:47.748Z,100385.59
2022-12-15T21:06:16.024Z,100377.16
2022-12-15T21:08:43.977Z,100380.28
2022-12-15T21:11:15.491Z,100398.59
2022-12-15T21:13:44.800Z,100394.84
2022-12-15T21:16:15.951Z,100394.84
2022-12-15T21:21:33.357Z,100400.25
2022-12-15T21:24:01.433Z,100410.03
2022-12-15T21:26:29.781Z,100402.97
2022-12-15T21:28:59.959Z,100404.03
2022-12-15T21:31:27.916Z,100399.44
2022-12-15T21:33:55.828Z,100397.75
2022-12-15T21:36:23.994Z,100387.72
2022-12-15T21:38:52.049Z,100397.75
2022-12-15T21:41:22.063Z,100401.53
2022-12-15T21:43:50.408Z,100396.09
2022-12-15T21:46:26.184Z,100402.56
2022-12-15T21:49:13.224Z,100396.72
2022-12-15T21:51:41.648Z,100397.97
2022-12-15T21:54:16.616Z,100403.41
2022-12-15T21:56:45.110Z,100398.81
2022-12-15T21:59:14.101Z,100399.84
2022-12-15T22:01:43.661Z,100391.56
2022-12-15T22:04:17.523Z,100382.88
2022-12-15T22:06:50.518Z,100412.59
2022-12-15T22:09:19.434Z,100409.88
2022-12-15T22:11:48.199Z,100415.31
2022-12-15T22:14:17.887Z,100403.94
2022-12-15T22:16:47.456Z,100398.72
2022-12-15T22:19:15.406Z,100409.06
2022-12-15T22:21:43.319Z,100405.53
2022-12-15T22:24:11.237Z,100410.97
2022-12-15T22:26:39.964Z,100404.78
2022-12-15T22:29:12.978Z,100377.72
2022-12-15T22:31:40.872Z,100402.00
2022-12-15T22:34:14.748Z,100408.47
2022-12-15T22:36:42.708Z,100413.91
2022-12-15T22:39:11.313Z,100413.06
2022-12-15T22:41:40.323Z,100372.59
2022-12-15T22:44:13.133Z,100417.66
2022-12-15T22:46:41.349Z,100423.09
2022-12-15T22:49:10.774Z,100426.88
2022-12-15T22:51:40.131Z,100419.75
2022-12-15T22:54:18.930Z,100426.28
2022-12-15T22:56:47.096Z,100431.47
2022-12-15T22:59:18.518Z,100424.38
2022-12-15T23:01:47.328Z,100427.91
2022-12-15T23:04:15.406Z,100432.28
2022-12-15T23:06:45.332Z,100430.47
2022-12-15T23:09:14.961Z,100437.94
2022-12-15T23:11:42.026Z,100437.13
2022-12-15T23:14:10.832Z,100444.44
2022-12-15T23:16:38.125Z,100434.69
2022-12-15T23:19:07.865Z,100400.81
2022-12-15T23:21:36.469Z,100448.00
2022-12-15T23:24:06.007Z,100454.47
2022-12-15T23:26:34.156Z,100420.97
2022-12-15T23:29:02.085Z,100443.63
2022-12-15T23:31:30.261Z,100436.81
2022-12-15T23:33:58.292Z,100457.19
2022-12-15T23:36:26.516Z,100457.63
2022-12-15T23:38:55.167Z,100453.66
2022-12-15T23:41:24.469Z,100351.47
2022-12-15T23:43:52.463Z,100449.25
2022-12-15T23:46:21.257Z,100456.56
2022-12-15T23:48:49.231Z,100460.34
2022-12-15T23:51:18.080Z,100459.28
2022-12-15T23:53:46.526Z,100463.06
2022-12-15T23:56:15.756Z,100436.28
2022-12-15T23:58:46.007Z,100460.34
